Time;durP1;ratioP1;P1;durP2;ratioP2;P2;SDS_P1;SDS_P2;PMS_P1;PMS_P2;Temp;Humidity;BMP_temperature;BMP_pressure;BME280_temperature;BME280_humidity;BME280_pressure;Samples;Min_cycle;Max_cycle;Signal;HPM_P1;HPM_P2
2022/12/20 00:00:11;;;;;;;;;;;19.30;99.90;;;;;;5072152;28;20267;-66
2022/12/20 00:02:38;;;;;;;;;;;19.10;99.90;;;;;;5072356;28;19908;-65
2022/12/20 00:05:05;;;;;;;;;;;19.10;99.90;;;;;;5072084;28;20376;-63
2022/12/20 00:07:32;;;;;;;;;;;19.10;99.90;;;;;;5072508;28;19954;-63
2022/12/20 00:09:58;;;;;;;;;;;19.20;99.90;;;;;;5072417;28;19909;-63
2022/12/20 00:12:25;;;;;;;;;;;19.30;99.90;;;;;;5072626;28;20024;-64
2022/12/20 00:14:52;;;;;;;;;;;19.60;99.90;;;;;;5074894;28;19912;-64
2022/12/20 00:17:18;;;;;;;;;;;19.90;99.90;;;;;;5076128;28;19909;-65
2022/12/20 00:19:45;;;;;;;;;;;19.50;99.90;;;;;;5075882;28;19916;-63
2022/12/20 00:22:12;;;;;;;;;;;19.90;99.90;;;;;;5076026;28;20363;-65
2022/12/20 00:24:38;;;;;;;;;;;20.10;99.90;;;;;;5075852;28;20312;-64
2022/12/20 00:27:05;;;;;;;;;;;20.20;99.90;;;;;;5074372;28;19916;-63
2022/12/20 00:29:32;;;;;;;;;;;20.30;99.90;;;;;;5075535;28;19920;-63
2022/12/20 00:31:59;;;;;;;;;;;20.30;99.90;;;;;;5073762;28;19912;-64
2022/12/20 00:34:25;;;;;;;;;;;20.30;99.90;;;;;;5075616;28;20003;-70
2022/12/20 00:36:52;;;;;;;;;;;20.40;99.90;;;;;;5075553;28;19916;-65
2022/12/20 00:39:19;;;;;;;;;;;20.50;99.90;;;;;;5075595;28;19926;-66
2022/12/20 00:41:45;;;;;;;;;;;20.70;99.90;;;;;;5074701;28;19912;-64
2022/12/20 00:44:12;;;;;;;;;;;20.60;99.90;;;;;;5075899;28;20274;-66
2022/12/20 00:46:39;;;;;;;;;;;20.40;99.90;;;;;;5075587;28;19989;-68
2022/12/20 00:49:06;;;;;;;;;;;20.20;99.90;;;;;;5075404;28;19913;-68
2022/12/20 00:51:33;;;;;;;;;;;19.90;99.90;;;;;;5075392;28;19908;-64
2022/12/20 00:53:59;;;;;;;;;;;19.70;99.90;;;;;;5075384;28;19909;-64
2022/12/20 00:56:26;;;;;;;;;;;19.70;99.90;;;;;;5074047;28;19926;-64
2022/12/20 00:58:53;;;;;;;;;;;19.30;99.90;;;;;;5074963;28;19916;-64
2022/12/20 01:01:22;;;;;;;;;;;19.40;99.90;;;;;;5075293;28;20704;-63
2022/12/20 01:03:49;;;;;;;;;;;19.50;99.90;;;;;;5075066;28;20414;-70
2022/12/20 01:06:16;;;;;;;;;;;19.30;99.90;;;;;;5075274;28;19915;-71
2022/12/20 01:08:43;;;;;;;;;;;19.20;99.90;;;;;;5075077;28;20275;-71
2022/12/20 01:11:15;;;;;;;;;;;19.10;99.90;;;;;;5073799;28;19922;-71
2022/12/20 01:13:46;;;;;;;;;;;19.10;99.90;;;;;;5074866;28;19916;-70
2022/12/20 01:16:15;;;;;;;;;;;19.00;99.90;;;;;;5074914;28;20358;-69
2022/12/20 01:18:42;;;;;;;;;;;19.00;99.90;;;;;;5074850;28;20359;-71
2022/12/20 01:21:10;;;;;;;;;;;19.10;99.90;;;;;;5074724;28;20315;-71
2022/12/20 01:23:36;;;;;;;;;;;19.00;99.90;;;;;;5074377;28;20004;-69
2022/12/20 01:26:04;;;;;;;;;;;19.00;99.90;;;;;;5073662;28;19913;-71
2022/12/20 01:28:31;;;;;;;;;;;19.10;99.90;;;;;;5074781;28;19909;-70
2022/12/20 01:30:58;;;;;;;;;;;19.00;99.90;;;;;;5072716;28;19909;-71
2022/12/20 01:33:25;;;;;;;;;;;19.20;99.90;;;;;;5073929;28;19985;-71
2022/12/20 01:35:59;;;;;;;;;;;19.30;99.90;;;;;;5074606;28;19919;-70
2022/12/20 01:38:26;;;;;;;;;;;19.30;99.90;;;;;;5074425;28;20304;-71
2022/12/20 01:40:53;;;;;;;;;;;19.50;99.90;;;;;;5074045;28;20009;-70
2022/12/20 01:43:20;;;;;;;;;;;19.60;99.90;;;;;;5074270;28;19919;-71
2022/12/20 01:45:48;;;;;;;;;;;19.90;99.90;;;;;;5073465;28;19942;-71
2022/12/20 01:48:17;;;;;;;;;;;20.30;99.90;;;;;;5073612;28;19991;-70
2022/12/20 01:50:45;;;;;;;;;;;20.60;99.90;;;;;;5074236;28;19931;-71
2022/12/20 01:53:12;;;;;;;;;;;20.60;99.90;;;;;;5074111;28;20225;-71
2022/12/20 01:55:39;;;;;;;;;;;20.80;99.90;;;;;;5074110;28;19909;-72
2022/12/20 01:58:08;;;;;;;;;;;20.80;99.90;;;;;;5073970;28;20008;-72
2022/12/20 02:00:36;;;;;;;;;;;21.10;99.90;;;;;;5073176;28;19919;-72
2022/12/20 02:03:05;;;;;;;;;;;21.10;99.90;;;;;;5073865;28;19908;-71
2022/12/20 02:05:39;;;;;;;;;;;21.10;99.90;;;;;;5074033;28;19909;-71
2022/12/20 02:08:07;;;;;;;;;;;21.00;99.90;;;;;;5073927;28;19909;-71
2022/12/20 02:10:41;;;;;;;;;;;21.20;99.90;;;;;;5073991;28;19909;-70
2022/12/20 02:13:10;;;;;;;;;;;21.10;99.90;;;;;;5073438;28;19930;-71
2022/12/20 02:15:46;;;;;;;;;;;21.20;99.90;;;;;;5072667;28;20274;-70
2022/12/20 02:18:21;;;;;;;;;;;21.40;99.80;;;;;;5072705;28;19991;-70
2022/12/20 02:20:54;;;;;;;;;;;21.20;99.90;;;;;;5073710;28;19909;-71
2022/12/20 02:23:24;;;;;;;;;;;21.00;99.90;;;;;;5073707;28;19947;-71
2022/12/20 02:25:54;;;;;;;;;;;21.20;99.90;;;;;;5073547;28;20264;-72
2022/12/20 02:28:30;;;;;;;;;;;21.30;99.90;;;;;;5073271;28;19912;-71
2022/12/20 02:30:59;;;;;;;;;;;21.10;99.90;;;;;;5072040;28;19931;-71
2022/12/20 02:33:27;;;;;;;;;;;21.20;99.90;;;;;;5073328;28;19915;-71
2022/12/20 02:35:53;;;;;;;;;;;21.30;99.90;;;;;;5072554;28;19919;-72
2022/12/20 02:38:38;;;;;;;;;;;21.30;99.90;;;;;;5073282;28;20355;-71
2022/12/20 02:41:07;;;;;;;;;;;21.30;99.90;;;;;;5073089;28;20066;-71
2022/12/20 02:46:21;;;;;;;;;;;21.40;99.90;;;;;;5072453;28;20054;-71
2022/12/20 02:48:48;;;;;;;;;;;21.40;99.90;;;;;;5072088;28;19912;-72
2022/12/20 02:51:16;;;;;;;;;;;21.60;99.30;;;;;;5073126;28;19978;-72
2022/12/20 02:53:43;;;;;;;;;;;21.80;99.70;;;;;;5073082;28;19909;-68
2022/12/20 02:56:16;;;;;;;;;;;21.80;99.50;;;;;;5072965;28;19932;-70
2022/12/20 02:58:49;;;;;;;;;;;21.50;99.80;;;;;;5073027;28;19920;-72
2022/12/20 03:01:35;;;;;;;;;;;21.20;99.90;;;;;;5072260;28;19966;-70
2022/12/20 03:04:03;;;;;;;;;;;21.30;99.90;;;;;;5072857;28;19908;-70
2022/12/20 03:06:30;;;;;;;;;;;21.20;99.90;;;;;;5072918;28;20220;-69
2022/12/20 03:08:56;;;;;;;;;;;21.10;99.90;;;;;;5072741;28;19910;-69
2022/12/20 03:11:23;;;;;;;;;;;21.20;99.90;;;;;;5072924;28;19947;-68
2022/12/20 03:13:50;;;;;;;;;;;21.10;99.90;;;;;;5072920;28;20559;-65
2022/12/20 03:16:16;;;;;;;;;;;21.10;99.90;;;;;;5071700;28;19965;-66
2022/12/20 03:18:44;;;;;;;;;;;21.20;99.90;;;;;;5072663;28;19928;-67
2022/12/20 03:21:11;;;;;;;;;;;21.30;99.90;;;;;;5072878;28;20007;-71
2022/12/20 03:23:38;;;;;;;;;;;21.40;99.90;;;;;;5072745;28;19908;-69
2022/12/20 03:26:05;;;;;;;;;;;21.20;99.90;;;;;;5072887;28;19908;-71
2022/12/20 03:28:31;;;;;;;;;;;21.70;99.90;;;;;;5072598;28;19909;-70
2022/12/20 03:30:58;;;;;;;;;;;21.50;99.90;;;;;;5071721;28;19913;-70
2022/12/20 03:33:25;;;;;;;;;;;21.70;99.90;;;;;;5072669;28;20338;-69
2022/12/20 03:35:51;;;;;;;;;;;21.40;99.90;;;;;;5072848;28;19970;-67
2022/12/20 03:38:18;;;;;;;;;;;21.20;99.90;;;;;;5072688;28;19915;-69
2022/12/20 03:40:45;;;;;;;;;;;21.10;99.90;;;;;;5072698;28;19908;-65
2022/12/20 03:43:11;;;;;;;;;;;21.10;99.90;;;;;;5072910;28;19908;-70
2022/12/20 03:45:38;;;;;;;;;;;20.90;99.90;;;;;;5071844;28;19912;-69
2022/12/20 03:48:05;;;;;;;;;;;20.90;99.90;;;;;;5075279;28;19915;-67
2022/12/20 03:50:31;;;;;;;;;;;21.00;99.90;;;;;;5076824;28;19908;-69
2022/12/20 03:52:58;;;;;;;;;;;21.40;99.90;;;;;;5076417;28;19909;-67
2022/12/20 03:55:25;;;;;;;;;;;21.60;99.90;;;;;;5076517;28;20329;-71
2022/12/20 03:57:51;;;;;;;;;;;21.60;99.90;;;;;;5076040;28;19928;-71
2022/12/20 04:00:19;;;;;;;;;;;21.60;99.90;;;;;;5074440;28;20011;-70
2022/12/20 04:02:46;;;;;;;;;;;21.40;99.90;;;;;;5076055;28;19981;-70
2022/12/20 04:05:12;;;;;;;;;;;21.60;99.90;;;;;;5076420;28;19909;-71
2022/12/20 04:07:39;;;;;;;;;;;21.40;99.90;;;;;;5075022;28;19944;-71
2022/12/20 04:10:06;;;;;;;;;;;21.30;99.90;;;;;;5075296;28;19991;-71
2022/12/20 04:12:33;;;;;;;;;;;21.40;99.90;;;;;;5076080;28;19962;-70
2022/12/20 04:15:00;;;;;;;;;;;21.40;99.90;;;;;;5075897;28;19909;-71
2022/12/20 04:17:26;;;;;;;;;;;21.40;99.90;;;;;;5076104;28;19915;-71
2022/12/20 04:19:53;;;;;;;;;;;21.30;99.90;;;;;;5075984;28;20010;-69
2022/12/20 04:22:20;;;;;;;;;;;21.50;99.90;;;;;;5075560;28;19912;-71
2022/12/20 04:24:46;;;;;;;;;;;21.60;99.90;;;;;;5075378;28;20324;-70
2022/12/20 04:27:13;;;;;;;;;;;21.40;99.90;;;;;;5075714;28;19908;-70
2022/12/20 04:29:40;;;;;;;;;;;20.90;99.90;;;;;;5075849;28;19919;-70
2022/12/20 04:32:06;;;;;;;;;;;20.70;99.90;;;;;;5076068;28;20370;-71
2022/12/20 04:34:33;;;;;;;;;;;20.60;99.90;;;;;;5075923;28;19908;-70
2022/12/20 04:37:00;;;;;;;;;;;20.50;99.90;;;;;;5074587;28;19912;-69
2022/12/20 04:39:26;;;;;;;;;;;20.30;99.90;;;;;;5075781;28;19974;-70
2022/12/20 04:41:53;;;;;;;;;;;20.30;99.90;;;;;;5075623;28;19974;-70
2022/12/20 04:44:20;;;;;;;;;;;20.50;99.90;;;;;;5075833;28;20084;-71
2022/12/20 04:46:46;;;;;;;;;;;20.70;99.90;;;;;;5075591;28;19908;-70
2022/12/20 04:49:13;;;;;;;;;;;20.50;99.90;;;;;;5075593;28;19974;-71
2022/12/20 04:51:40;;;;;;;;;;;20.30;99.90;;;;;;5074254;28;19912;-69
2022/12/20 04:54:06;;;;;;;;;;;20.50;99.90;;;;;;5075267;28;19954;-68
2022/12/20 04:56:33;;;;;;;;;;;20.50;99.90;;;;;;5075352;28;19920;-71
2022/12/20 04:59:01;;;;;;;;;;;20.50;99.90;;;;;;5074199;28;20275;-70
2022/12/20 05:01:28;;;;;;;;;;;20.30;99.90;;;;;;5075578;28;19908;-71
2022/12/20 05:03:54;;;;;;;;;;;20.30;99.90;;;;;;5075661;28;20259;-71
2022/12/20 05:06:21;;;;;;;;;;;20.30;99.90;;;;;;5074292;28;20260;-71
2022/12/20 05:08:48;;;;;;;;;;;20.30;99.90;;;;;;5074709;28;20013;-65
2022/12/20 05:11:15;;;;;;;;;;;20.20;99.90;;;;;;5055143;28;19909;-71
2022/12/20 05:13:41;;;;;;;;;;;20.10;99.90;;;;;;5055028;28;20021;-70
2022/12/20 05:16:08;;;;;;;;;;;20.10;99.90;;;;;;5055199;28;19963;-70
2022/12/20 05:18:35;;;;;;;;;;;20.10;99.90;;;;;;5055102;28;19913;-71
2022/12/20 05:26:33;;;;;;;;;;;20.00;99.90;;;;;;5073959;28;20326;-69
2022/12/20 05:29:00;;;;;;;;;;;19.90;99.90;;;;;;5073174;28;19908;-70
2022/12/20 05:31:26;;;;;;;;;;;19.80;99.90;;;;;;5074832;28;20007;-69
2022/12/20 05:33:53;;;;;;;;;;;19.80;99.90;;;;;;5074621;28;19909;-67
2022/12/20 05:36:20;;;;;;;;;;;19.90;99.90;;;;;;5073526;28;19912;-68
2022/12/20 05:38:47;;;;;;;;;;;20.00;99.90;;;;;;5073481;28;19916;-66
2022/12/20 05:41:13;;;;;;;;;;;20.30;99.90;;;;;;5074380;28;20268;-68
2022/12/20 05:43:40;;;;;;;;;;;20.20;99.90;;;;;;5074325;28;19913;-70
2022/12/20 05:46:07;;;;;;;;;;;20.20;99.90;;;;;;5074492;28;19962;-66
2022/12/20 05:48:33;;;;;;;;;;;20.20;99.90;;;;;;5071685;28;19935;-71
2022/12/20 05:51:00;;;;;;;;;;;20.10;99.90;;;;;;5064031;28;19917;-65
2022/12/20 05:53:27;;;;;;;;;;;20.00;99.90;;;;;;5064782;28;20308;-66
2022/12/20 05:55:54;;;;;;;;;;;19.80;99.90;;;;;;5065840;28;19913;-70
2022/12/20 05:58:21;;;;;;;;;;;19.70;99.90;;;;;;5065016;28;19928;-66
2022/12/20 06:00:48;;;;;;;;;;;19.70;99.90;;;;;;5065178;28;19917;-65
2022/12/20 06:03:14;;;;;;;;;;;19.60;99.90;;;;;;5065273;28;19920;-65
2022/12/20 06:05:42;;;;;;;;;;;19.60;99.90;;;;;;5063958;28;19916;-66
2022/12/20 06:08:09;;;;;;;;;;;19.60;99.90;;;;;;5065195;28;19912;-65
2022/12/20 06:10:36;;;;;;;;;;;19.60;99.90;;;;;;5065351;28;20058;-63
2022/12/20 06:13:03;;;;;;;;;;;19.60;99.90;;;;;;5064565;28;19923;-64
2022/12/20 06:15:30;;;;;;;;;;;19.50;99.90;;;;;;5064793;28;20597;-70
2022/12/20 06:17:56;;;;;;;;;;;19.40;99.90;;;;;;5065351;28;19927;-66
2022/12/20 06:20:23;;;;;;;;;;;19.40;99.90;;;;;;5064505;28;19925;-64
2022/12/20 06:22:51;;;;;;;;;;;19.40;99.90;;;;;;5063864;28;20047;-67
2022/12/20 06:25:18;;;;;;;;;;;19.40;99.90;;;;;;5065248;28;19965;-65
2022/12/20 06:27:44;;;;;;;;;;;19.40;99.90;;;;;;5064891;28;20029;-66
2022/12/20 06:30:12;;;;;;;;;;;19.40;99.90;;;;;;5064680;28;19920;-66
2022/12/20 06:32:38;;;;;;;;;;;19.50;99.90;;;;;;5065142;28;19959;-65
2022/12/20 06:35:05;;;;;;;;;;;19.50;99.90;;;;;;5063721;28;19917;-67
2022/12/20 06:37:32;;;;;;;;;;;19.60;99.90;;;;;;5064852;28;19912;-70
2022/12/20 06:39:59;;;;;;;;;;;19.60;99.90;;;;;;5065132;28;20024;-71
2022/12/20 06:42:25;;;;;;;;;;;19.60;99.90;;;;;;5064361;28;20379;-67
2022/12/20 06:44:52;;;;;;;;;;;19.70;99.90;;;;;;5064428;28;20386;-65
2022/12/20 06:47:19;;;;;;;;;;;19.60;99.90;;;;;;5064796;28;19913;-66
2022/12/20 06:49:45;;;;;;;;;;;19.70;99.90;;;;;;5063670;28;19917;-66
2022/12/20 06:52:12;;;;;;;;;;;19.70;99.90;;;;;;5064993;28;19956;-67
2022/12/20 06:54:39;;;;;;;;;;;19.60;99.90;;;;;;5064453;28;19934;-65
2022/12/20 06:57:05;;;;;;;;;;;19.80;99.90;;;;;;5064124;28;19929;-68
2022/12/20 06:59:32;;;;;;;;;;;19.70;99.90;;;;;;5064251;28;20019;-67
2022/12/20 07:01:59;;;;;;;;;;;19.60;99.90;;;;;;5064448;28;19912;-68
2022/12/20 07:04:26;;;;;;;;;;;19.60;99.90;;;;;;5063645;28;19927;-69
2022/12/20 07:06:53;;;;;;;;;;;19.70;99.90;;;;;;5064292;28;20201;-67
2022/12/20 07:09:19;;;;;;;;;;;19.70;99.90;;;;;;5064244;28;19913;-70
2022/12/20 07:11:46;;;;;;;;;;;19.70;99.90;;;;;;5064710;28;19943;-68
2022/12/20 07:14:13;;;;;;;;;;;19.70;99.90;;;;;;5064313;28;19981;-70
2022/12/20 07:16:42;;;;;;;;;;;19.60;99.90;;;;;;5064728;28;20436;-65
2022/12/20 07:19:12;;;;;;;;;;;19.70;99.90;;;;;;5063244;28;20020;-64
2022/12/20 07:21:39;;;;;;;;;;;19.60;99.90;;;;;;5063679;28;19963;-65
2022/12/20 07:24:06;;;;;;;;;;;19.60;99.90;;;;;;5064413;28;19931;-64
2022/12/20 07:26:33;;;;;;;;;;;19.60;99.90;;;;;;5063987;28;19920;-67
2022/12/20 07:28:59;;;;;;;;;;;19.60;99.90;;;;;;5064149;28;19916;-64
2022/12/20 07:31:26;;;;;;;;;;;19.50;99.90;;;;;;5064464;28;19912;-69
2022/12/20 07:33:53;;;;;;;;;;;19.60;99.90;;;;;;5063035;28;19924;-65
2022/12/20 07:36:20;;;;;;;;;;;19.60;99.90;;;;;;5064181;28;19958;-67
2022/12/20 07:38:47;;;;;;;;;;;19.60;99.90;;;;;;5064031;28;19916;-65
2022/12/20 07:41:16;;;;;;;;;;;19.60;99.90;;;;;;5063998;28;19919;-66
2022/12/20 07:43:43;;;;;;;;;;;19.40;99.90;;;;;;5064212;28;19913;-65
2022/12/20 07:46:12;;;;;;;;;;;19.40;99.90;;;;;;5063318;28;19917;-71
2022/12/20 07:48:38;;;;;;;;;;;19.30;99.90;;;;;;5063904;28;19912;-64
2022/12/20 07:51:24;;;;;;;;;;;19.30;99.90;;;;;;5064014;28;20765;-64
2022/12/20 07:54:03;;;;;;;;;;;19.20;99.90;;;;;;5064160;28;19924;-66
2022/12/20 07:56:32;;;;;;;;;;;19.30;99.90;;;;;;5063960;28;19920;-69
2022/12/20 07:59:00;;;;;;;;;;;19.20;99.90;;;;;;5062848;28;19928;-67
2022/12/20 08:01:29;;;;;;;;;;;19.10;99.90;;;;;;5063678;28;20321;-71
2022/12/20 08:04:11;;;;;;;;;;;19.10;99.90;;;;;;5064119;28;19912;-67
2022/12/20 08:06:45;;;;;;;;;;;19.10;99.90;;;;;;5064368;28;20714;-70
2022/12/20 08:09:12;;;;;;;;;;;19.00;99.90;;;;;;5064081;28;19912;-65
2022/12/20 08:11:41;;;;;;;;;;;19.00;99.90;;;;;;5064157;28;19913;-70
2022/12/20 08:14:08;;;;;;;;;;;19.10;99.90;;;;;;5062794;28;19969;-68
2022/12/20 08:16:35;;;;;;;;;;;19.10;99.90;;;;;;5063248;28;19927;-68
2022/12/20 08:19:01;;;;;;;;;;;18.90;99.90;;;;;;5063255;28;19924;-69
2022/12/20 08:21:29;;;;;;;;;;;18.90;99.90;;;;;;5064225;28;20506;-66
2022/12/20 08:23:56;;;;;;;;;;;18.90;99.90;;;;;;5064187;28;19935;-69
2022/12/20 08:26:23;;;;;;;;;;;19.00;99.90;;;;;;5063457;28;20588;-70
2022/12/20 08:28:50;;;;;;;;;;;18.80;99.90;;;;;;5062455;28;20045;-67
2022/12/20 08:31:17;;;;;;;;;;;18.80;99.90;;;;;;5063042;28;20664;-68
2022/12/20 08:33:43;;;;;;;;;;;18.80;99.90;;;;;;5064217;28;20286;-68
2022/12/20 08:36:11;;;;;;;;;;;18.60;99.90;;;;;;5067156;28;19917;-65
2022/12/20 08:38:38;;;;;;;;;;;18.50;99.90;;;;;;5066888;28;19955;-71
2022/12/20 08:41:09;;;;;;;;;;;18.50;99.90;;;;;;5066542;28;19913;-67
2022/12/20 08:43:37;;;;;;;;;;;18.50;99.90;;;;;;5066050;28;20032;-70
2022/12/20 08:46:04;;;;;;;;;;;18.50;99.90;;;;;;5067069;28;19961;-66
2022/12/20 08:48:31;;;;;;;;;;;18.50;99.90;;;;;;5074964;28;20434;-68
2022/12/20 08:50:59;;;;;;;;;;;18.50;99.90;;;;;;5075209;28;20351;-69
2022/12/20 08:53:27;;;;;;;;;;;18.40;99.90;;;;;;5075446;28;20359;-70
2022/12/20 08:55:53;;;;;;;;;;;18.30;99.90;;;;;;5075271;28;19909;-65
2022/12/20 08:58:20;;;;;;;;;;;18.30;99.90;;;;;;5074081;28;19928;-66
2022/12/20 09:00:47;;;;;;;;;;;18.20;99.90;;;;;;5074963;28;19909;-66
2022/12/20 09:03:14;;;;;;;;;;;18.20;99.90;;;;;;5074969;28;19964;-65
2022/12/20 09:05:44;;;;;;;;;;;18.20;99.90;;;;;;5075570;28;20309;-65
2022/12/20 09:08:11;;;;;;;;;;;18.30;99.90;;;;;;5075386;28;19915;-66
2022/12/20 09:10:38;;;;;;;;;;;18.30;99.90;;;;;;5075019;28;19920;-64
2022/12/20 09:13:05;;;;;;;;;;;18.20;99.90;;;;;;5074116;28;19912;-66
2022/12/20 09:15:33;;;;;;;;;;;18.10;99.90;;;;;;5074998;28;19912;-70
2022/12/20 09:17:59;;;;;;;;;;;18.10;99.90;;;;;;5075001;28;19908;-68
2022/12/20 09:20:27;;;;;;;;;;;18.10;99.90;;;;;;5073045;28;19922;-71
2022/12/20 09:22:53;;;;;;;;;;;18.10;99.90;;;;;;5072673;28;19961;-64
2022/12/20 09:25:20;;;;;;;;;;;18.00;99.90;;;;;;5072679;28;19948;-64
2022/12/20 09:27:47;;;;;;;;;;;17.90;99.90;;;;;;5071638;28;19917;-64
2022/12/20 09:30:13;;;;;;;;;;;17.90;99.90;;;;;;5071503;28;20286;-69
2022/12/20 09:32:40;;;;;;;;;;;17.90;99.90;;;;;;5068776;28;19917;-66
2022/12/20 09:35:07;;;;;;;;;;;18.00;99.90;;;;;;5065420;28;19939;-67
2022/12/20 09:37:34;;;;;;;;;;;18.00;99.90;;;;;;5072736;28;19912;-66
2022/12/20 09:40:00;;;;;;;;;;;17.90;99.90;;;;;;5072436;28;19929;-62
2022/12/20 09:42:29;;;;;;;;;;;17.80;99.90;;;;;;5070239;28;19944;-64
2022/12/20 09:44:58;;;;;;;;;;;17.80;99.90;;;;;;5069983;28;19913;-65
2022/12/20 09:47:25;;;;;;;;;;;17.90;99.90;;;;;;5071904;28;19916;-64
2022/12/20 09:49:54;;;;;;;;;;;17.90;99.90;;;;;;5072343;28;20456;-66
2022/12/20 09:52:39;;;;;;;;;;;17.80;99.90;;;;;;5072486;28;19912;-64
2022/12/20 09:55:34;;;;;;;;;;;17.80;99.90;;;;;;5072077;28;20286;-69
2022/12/20 09:58:20;;;;;;;;;;;17.70;99.90;;;;;;5053455;28;20298;-64
2022/12/20 10:00:48;;;;;;;;;;;17.80;99.90;;;;;;5071547;28;19916;-64
2022/12/20 10:03:20;;;;;;;;;;;17.70;99.90;;;;;;5072383;28;20351;-66
2022/12/20 10:05:50;;;;;;;;;;;17.60;99.90;;;;;;5071978;28;19909;-69
2022/12/20 10:08:16;;;;;;;;;;;17.60;99.90;;;;;;5072285;28;20003;-68
2022/12/20 10:11:01;;;;;;;;;;;17.60;99.90;;;;;;5071875;28;19913;-65
2022/12/20 10:13:37;;;;;;;;;;;17.60;99.90;;;;;;5070943;28;20002;-69
2022/12/20 10:16:14;;;;;;;;;;;17.60;99.90;;;;;;5051828;28;20661;-69
2022/12/20 10:19:01;;;;;;;;;;;17.60;99.90;;;;;;5052080;28;19942;-69
2022/12/20 10:21:40;;;;;;;;;;;17.50;99.90;;;;;;5052083;28;20318;-71
2022/12/20 10:24:14;;;;;;;;;;;17.50;99.90;;;;;;5069212;28;19924;-70
2022/12/20 10:26:41;;;;;;;;;;;17.50;99.90;;;;;;5071535;28;19913;-71
2022/12/20 10:29:08;;;;;;;;;;;17.50;99.90;;;;;;5071715;28;19959;-70
2022/12/20 10:31:35;;;;;;;;;;;17.50;99.90;;;;;;5071844;28;19913;-72
2022/12/20 10:34:01;;;;;;;;;;;17.50;99.90;;;;;;5071816;28;19913;-68
2022/12/20 10:36:29;;;;;;;;;;;17.50;99.90;;;;;;5071790;28;19958;-66
2022/12/20 10:39:07;;;;;;;;;;;17.50;99.90;;;;;;5068392;28;19924;-66
2022/12/20 10:41:50;;;;;;;;;;;17.50;99.90;;;;;;5070106;28;20014;-66
2022/12/20 10:44:17;;;;;;;;;;;17.50;99.90;;;;;;5071518;28;19962;-65
2022/12/20 10:46:45;;;;;;;;;;;17.50;99.90;;;;;;5070785;28;20283;-65
2022/12/20 10:49:27;;;;;;;;;;;17.40;99.90;;;;;;5071527;28;19908;-67
2022/12/20 10:51:54;;;;;;;;;;;17.50;99.90;;;;;;5070196;28;19948;-67
2022/12/20 10:54:28;;;;;;;;;;;17.50;99.90;;;;;;5071165;28;19912;-66
2022/12/20 10:56:57;;;;;;;;;;;17.50;99.90;;;;;;5070278;28;19924;-65
2022/12/20 10:59:34;;;;;;;;;;;17.50;99.90;;;;;;5071083;28;19922;-67
2022/12/20 11:02:02;;;;;;;;;;;17.50;99.90;;;;;;5072564;28;19966;-66
2022/12/20 11:04:28;;;;;;;;;;;17.50;99.90;;;;;;5073572;28;20378;-65
2022/12/20 11:06:55;;;;;;;;;;;17.50;99.90;;;;;;5071955;28;19913;-65
2022/12/20 11:09:22;;;;;;;;;;;17.50;99.90;;;;;;5070450;28;19967;-68
2022/12/20 11:12:06;;;;;;;;;;;17.50;99.90;;;;;;5063121;28;19948;-67
2022/12/20 11:14:34;;;;;;;;;;;17.50;99.90;;;;;;5064671;28;20337;-65
2022/12/20 11:17:04;;;;;;;;;;;17.50;99.90;;;;;;5064432;28;19920;-65
2022/12/20 11:19:50;;;;;;;;;;;17.40;99.90;;;;;;5064505;28;19929;-68
2022/12/20 11:22:36;;;;;;;;;;;17.40;99.90;;;;;;5063660;28;19923;-68
2022/12/20 11:25:06;;;;;;;;;;;17.40;99.90;;;;;;5064105;28;20278;-66
2022/12/20 11:27:39;;;;;;;;;;;17.40;99.90;;;;;;5064570;28;19981;-66
2022/12/20 11:30:14;;;;;;;;;;;17.40;99.90;;;;;;5064642;28;19912;-68
2022/12/20 11:32:43;;;;;;;;;;;17.40;99.90;;;;;;5064547;28;19987;-65
2022/12/20 11:35:17;;;;;;;;;;;17.40;99.90;;;;;;5064399;28;19913;-68
2022/12/20 11:37:49;;;;;;;;;;;17.40;99.90;;;;;;5061427;28;20007;-67
2022/12/20 11:40:39;;;;;;;;;;;17.40;99.90;;;;;;5064068;28;19951;-67
2022/12/20 11:43:15;;;;;;;;;;;17.30;99.90;;;;;;5064689;28;19915;-65
2022/12/20 11:45:44;;;;;;;;;;;17.20;99.90;;;;;;5073059;28;19909;-67
2022/12/20 11:48:21;;;;;;;;;;;17.00;99.90;;;;;;5072812;28;19922;-68
2022/12/20 11:51:08;;;;;;;;;;;16.90;99.90;;;;;;5071718;28;19913;-65
2022/12/20 11:53:40;;;;;;;;;;;16.80;99.90;;;;;;5073047;28;20367;-65
2022/12/20 11:56:33;;;;;;;;;;;16.80;99.90;;;;;;5072004;28;19908;-65
2022/12/20 11:59:03;;;;;;;;;;;16.80;99.90;;;;;;5068921;28;19916;-65
2022/12/20 12:01:33;;;;;;;;;;;16.80;99.90;;;;;;5072948;28;20363;-65
2022/12/20 12:04:03;;;;;;;;;;;16.70;99.90;;;;;;5072815;28;19978;-70
2022/12/20 12:06:33;;;;;;;;;;;16.80;99.90;;;;;;5071877;28;20356;-69
2022/12/20 12:09:11;;;;;;;;;;;16.80;99.90;;;;;;5074941;28;19909;-70
2022/12/20 12:11:44;;;;;;;;;;;16.80;99.90;;;;;;5076532;28;19909;-70
2022/12/20 12:14:49;;;;;;;;;;;16.80;99.90;;;;;;5076423;28;19912;-71
2022/12/20 12:17:38;;;;;;;;;;;16.80;99.90;;;;;;4995066;28;19914;-67
2022/12/20 12:20:25;;;;;;;;;;;16.80;99.90;;;;;;4985007;28;19918;-66
2022/12/20 12:22:55;;;;;;;;;;;16.80;99.90;;;;;;5042972;28;19983;-67
2022/12/20 12:25:22;;;;;;;;;;;16.80;99.90;;;;;;5076013;28;19908;-67
2022/12/20 12:27:48;;;;;;;;;;;16.80;99.90;;;;;;5076458;28;19909;-66
2022/12/20 12:30:16;;;;;;;;;;;16.80;99.90;;;;;;5076294;28;19909;-66
2022/12/20 12:32:43;;;;;;;;;;;16.80;99.90;;;;;;5076151;28;19909;-65
2022/12/20 12:35:13;;;;;;;;;;;16.80;99.90;;;;;;5074956;28;19965;-71
2022/12/20 12:37:43;;;;;;;;;;;16.90;99.90;;;;;;5076156;28;19908;-72
2022/12/20 12:40:12;;;;;;;;;;;16.90;99.90;;;;;;5075922;28;19920;-71
2022/12/20 12:42:45;;;;;;;;;;;16.90;99.90;;;;;;5076100;28;20331;-67
2022/12/20 12:45:19;;;;;;;;;;;16.90;99.90;;;;;;5076001;28;19923;-67
2022/12/20 12:47:46;;;;;;;;;;;17.00;99.90;;;;;;5076023;28;19916;-67
2022/12/20 12:50:23;;;;;;;;;;;17.10;99.90;;;;;;5074898;28;19997;-65
2022/12/20 12:52:53;;;;;;;;;;;17.00;99.90;;;;;;5076140;28;20283;-68
2022/12/20 12:55:35;;;;;;;;;;;17.10;99.90;;;;;;5075613;28;19908;-65
2022/12/20 12:58:15;;;;;;;;;;;17.00;99.90;;;;;;5075657;28;19921;-67
2022/12/20 13:00:51;;;;;;;;;;;17.10;99.90;;;;;;5075782;28;19916;-66
2022/12/20 13:03:41;;;;;;;;;;;17.10;99.90;;;;;;5075695;28;20283;-65
2022/12/20 13:06:24;;;;;;;;;;;17.10;99.90;;;;;;5066540;28;19912;-65
2022/12/20 13:08:53;;;;;;;;;;;17.10;99.90;;;;;;5075324;28;19912;-65
2022/12/20 13:11:34;;;;;;;;;;;17.10;99.90;;;;;;5075317;28;20298;-65
2022/12/20 13:14:19;;;;;;;;;;;17.00;99.90;;;;;;5075510;28;19912;-65
2022/12/20 13:16:46;;;;;;;;;;;17.10;99.90;;;;;;5075486;28;19913;-66
2022/12/20 13:19:33;;;;;;;;;;;17.00;99.90;;;;;;5073810;28;20348;-65
2022/12/20 13:22:06;;;;;;;;;;;17.00;99.90;;;;;;5075326;28;19916;-66
2022/12/20 13:24:52;;;;;;;;;;;16.80;99.90;;;;;;5075187;28;19909;-67
2022/12/20 13:27:24;;;;;;;;;;;16.70;99.90;;;;;;5075272;28;19954;-66
2022/12/20 13:30:12;;;;;;;;;;;16.60;99.90;;;;;;5075177;28;19995;-71
2022/12/20 13:32:47;;;;;;;;;;;16.40;99.90;;;;;;5061707;28;19999;-67
2022/12/20 13:35:26;;;;;;;;;;;16.40;99.90;;;;;;5073781;28;20436;-72
2022/12/20 13:37:53;;;;;;;;;;;16.40;99.90;;;;;;5075203;28;20011;-72
2022/12/20 13:40:24;;;;;;;;;;;16.40;99.90;;;;;;5074860;28;19916;-71
2022/12/20 13:42:52;;;;;;;;;;;16.40;99.90;;;;;;5074734;28;20382;-71
2022/12/20 13:45:19;;;;;;;;;;;16.40;99.90;;;;;;5074866;28;19917;-72
2022/12/20 13:47:56;;;;;;;;;;;16.40;99.90;;;;;;5074797;28;19954;-67
2022/12/20 13:50:25;;;;;;;;;;;16.40;99.90;;;;;;5073867;28;19971;-72
2022/12/20 13:52:53;;;;;;;;;;;16.40;99.90;;;;;;5074590;28;19915;-71
2022/12/20 13:55:34;;;;;;;;;;;16.40;99.90;;;;;;5074241;28;19991;-71
2022/12/20 13:58:05;;;;;;;;;;;16.50;99.90;;;;;;5074143;28;20031;-72
2022/12/20 14:00:31;;;;;;;;;;;16.50;99.90;;;;;;5074132;28;20379;-72
2022/12/20 14:03:00;;;;;;;;;;;16.50;99.90;;;;;;5074227;28;19908;-72
2022/12/20 14:05:30;;;;;;;;;;;16.60;99.90;;;;;;5073161;28;19912;-72
2022/12/20 14:08:23;;;;;;;;;;;16.60;99.90;;;;;;5074413;28;20011;-72
2022/12/20 14:10:51;;;;;;;;;;;16.50;99.90;;;;;;5070120;28;19912;-72
2022/12/20 14:13:22;;;;;;;;;;;16.40;99.90;;;;;;5074373;28;20359;-71
2022/12/20 14:15:49;;;;;;;;;;;16.40;99.90;;;;;;5074218;28;19912;-72
2022/12/20 14:18:18;;;;;;;;;;;16.20;99.90;;;;;;5073455;28;19913;-72
2022/12/20 14:20:50;;;;;;;;;;;16.10;99.90;;;;;;5073923;28;19916;-68
2022/12/20 14:23:19;;;;;;;;;;;16.10;99.90;;;;;;5074167;28;19909;-72
2022/12/20 14:25:56;;;;;;;;;;;16.20;99.90;;;;;;5074000;28;19915;-72
2022/12/20 14:28:35;;;;;;;;;;;16.20;99.90;;;;;;5074197;28;19932;-72
2022/12/20 14:31:03;;;;;;;;;;;16.20;99.90;;;;;;5073634;28;19909;-72
2022/12/20 14:33:29;;;;;;;;;;;16.30;99.90;;;;;;5072811;28;20386;-72
2022/12/20 14:35:56;;;;;;;;;;;16.30;99.90;;;;;;5071081;28;20275;-72
2022/12/20 14:38:29;;;;;;;;;;;16.20;99.90;;;;;;5073833;28;20015;-70